sensor_id;sensor_type;location;lat;lon;timestamp;temperature;humidity
21019;DHT22;10667;51.056;3.732;2023-01-28T00:02:02;6.40;99.90
21019;DHT22;10667;51.056;3.732;2023-01-28T00:04:28;6.20;99.90
21019;DHT22;10667;51.056;3.732;2023-01-28T00:06:54;6.30;99.90
21019;DHT22;10667;51.056;3.732;2023-01-28T00:09:19;6.20;99.90
21019;DHT22;10667;51.056;3.732;2023-01-28T00:11:45;6.20;99.90
21019;DHT22;10667;51.056;3.732;2023-01-28T00:14:11;6.30;99.90
21019;DHT22;10667;51.056;3.732;2023-01-28T00:16:37;6.40;99.90
21019;DHT22;10667;51.056;3.732;2023-01-28T00:19:02;6.30;99.90
21019;DHT22;10667;51.056;3.732;2023-01-28T00:21:28;6.20;99.90
21019;DHT22;10667;51.056;3.732;2023-01-28T00:23:55;6.20;99.90
21019;DHT22;10667;51.056;3.732;2023-01-28T00:26:22;6.20;99.90
21019;DHT22;10667;51.056;3.732;2023-01-28T00:28:48;6.20;99.90
21019;DHT22;10667;51.056;3.732;2023-01-28T00:31:22;6.10;99.90
21019;DHT22;10667;51.056;3.732;2023-01-28T00:33:50;6.10;99.90
21019;DHT22;10667;51.056;3.732;2023-01-28T00:36:17;6.10;99.90
21019;DHT22;10667;51.056;3.732;2023-01-28T00:38:49;6.20;99.90
21019;DHT22;10667;51.056;3.732;2023-01-28T00:41:17;6.20;99.90
21019;DHT22;10667;51.056;3.732;2023-01-28T00:43:43;6.20;99.90
21019;DHT22;10667;51.056;3.732;2023-01-28T00:46:10;6.20;99.90
21019;DHT22;10667;51.056;3.732;2023-01-28T00:48:37;6.10;99.90
21019;DHT22;10667;51.056;3.732;2023-01-28T00:51:03;6.20;99.90
21019;DHT22;10667;51.056;3.732;2023-01-28T00:53:29;6.20;99.90
21019;DHT22;10667;51.056;3.732;2023-01-28T00:55:55;6.20;99.90
21019;DHT22;10667;51.056;3.732;2023-01-28T00:58:21;6.20;99.90
21019;DHT22;10667;51.056;3.732;2023-01-28T01:00:49;6.20;99.90
21019;DHT22;10667;51.056;3.732;2023-01-28T01:03:16;6.20;99.90
21019;DHT22;10667;51.056;3.732;2023-01-28T01:05:42;6.30;99.90
21019;DHT22;10667;51.056;3.732;2023-01-28T01:08:08;6.30;99.90
21019;DHT22;10667;51.056;3.732;2023-01-28T01:10:34;6.30;99.90
21019;DHT22;10667;51.056;3.732;2023-01-28T01:12:59;6.30;99.90
21019;DHT22;10667;51.056;3.732;2023-01-28T01:15:25;6.30;99.90
21019;DHT22;10667;51.056;3.732;2023-01-28T01:17:51;6.20;99.90
21019;DHT22;10667;51.056;3.732;2023-01-28T01:20:23;6.20;99.90
21019;DHT22;10667;51.056;3.732;2023-01-28T01:22:49;6.30;99.90
21019;DHT22;10667;51.056;3.732;2023-01-28T01:25:16;6.20;99.90
21019;DHT22;10667;51.056;3.732;2023-01-28T01:27:42;6.30;99.90
21019;DHT22;10667;51.056;3.732;2023-01-28T01:30:10;6.10;99.90
21019;DHT22;10667;51.056;3.732;2023-01-28T01:32:36;6.00;99.90
21019;DHT22;10667;51.056;3.732;2023-01-28T01:35:04;5.90;99.90
21019;DHT22;10667;51.056;3.732;2023-01-28T01:37:33;6.00;99.90
21019;DHT22;10667;51.056;3.732;2023-01-28T01:39:59;6.00;99.90
21019;DHT22;10667;51.056;3.732;2023-01-28T01:42:27;5.90;99.90
21019;DHT22;10667;51.056;3.732;2023-01-28T01:53:00;6.10;99.90
21019;DHT22;10667;51.056;3.732;2023-01-28T01:55:30;6.10;99.90
21019;DHT22;10667;51.056;3.732;2023-01-28T01:57:57;6.10;99.90
21019;DHT22;10667;51.056;3.732;2023-01-28T02:00:25;6.00;99.90
21019;DHT22;10667;51.056;3.732;2023-01-28T02:02:51;6.00;99.90
21019;DHT22;10667;51.056;3.732;2023-01-28T02:05:20;5.90;99.90
21019;DHT22;10667;51.056;3.732;2023-01-28T02:07:49;5.90;99.90
21019;DHT22;10667;51.056;3.732;2023-01-28T02:10:16;6.10;99.90
21019;DHT22;10667;51.056;3.732;2023-01-28T02:12:54;6.10;99.90
21019;DHT22;10667;51.056;3.732;2023-01-28T02:15:23;6.00;99.90
21019;DHT22;10667;51.056;3.732;2023-01-28T02:17:50;6.00;99.90
21019;DHT22;10667;51.056;3.732;2023-01-28T02:20:45;6.00;99.90
21019;DHT22;10667;51.056;3.732;2023-01-28T02:28:53;6.00;99.90
21019;DHT22;10667;51.056;3.732;2023-01-28T02:31:33;5.90;99.90
21019;DHT22;10667;51.056;3.732;2023-01-28T02:36:45;5.80;99.90
21019;DHT22;10667;51.056;3.732;2023-01-28T02:39:19;5.90;99.90
21019;DHT22;10667;51.056;3.732;2023-01-28T02:41:55;5.80;99.90
21019;DHT22;10667;51.056;3.732;2023-01-28T02:44:21;5.80;99.90
21019;DHT22;10667;51.056;3.732;2023-01-28T02:46:46;5.80;99.90
21019;DHT22;10667;51.056;3.732;2023-01-28T02:49:50;5.80;99.90
21019;DHT22;10667;51.056;3.732;2023-01-28T03:00:44;6.00;99.90
21019;DHT22;10667;51.056;3.732;2023-01-28T03:05:46;5.90;99.90
21019;DHT22;10667;51.056;3.732;2023-01-28T03:08:23;5.90;99.90
21019;DHT22;10667;51.056;3.732;2023-01-28T03:11:07;5.80;99.90
21019;DHT22;10667;51.056;3.732;2023-01-28T03:13:51;5.90;99.90
21019;DHT22;10667;51.056;3.732;2023-01-28T03:16:35;5.90;99.90
21019;DHT22;10667;51.056;3.732;2023-01-28T03:19:21;5.90;99.90
21019;DHT22;10667;51.056;3.732;2023-01-28T03:22:05;5.90;99.90
21019;DHT22;10667;51.056;3.732;2023-01-28T03:24:52;5.80;99.90
21019;DHT22;10667;51.056;3.732;2023-01-28T03:27:56;5.80;99.90
21019;DHT22;10667;51.056;3.732;2023-01-28T03:31:02;5.90;99.90
21019;DHT22;10667;51.056;3.732;2023-01-28T03:33:48;5.90;99.90
21019;DHT22;10667;51.056;3.732;2023-01-28T03:36:33;5.80;99.90
21019;DHT22;10667;51.056;3.732;2023-01-28T03:39:21;5.80;99.90
21019;DHT22;10667;51.056;3.732;2023-01-28T03:42:03;5.70;99.90
21019;DHT22;10667;51.056;3.732;2023-01-28T03:44:29;5.70;99.90
21019;DHT22;10667;51.056;3.732;2023-01-28T03:47:15;5.80;99.90
21019;DHT22;10667;51.056;3.732;2023-01-28T03:49:48;5.80;99.90
21019;DHT22;10667;51.056;3.732;2023-01-28T03:52:15;5.80;99.90
21019;DHT22;10667;51.056;3.732;2023-01-28T03:54:41;5.90;99.90
21019;DHT22;10667;51.056;3.732;2023-01-28T03:57:07;5.90;99.90
21019;DHT22;10667;51.056;3.732;2023-01-28T03:59:33;6.00;99.90
21019;DHT22;10667;51.056;3.732;2023-01-28T04:01:59;6.00;99.90
21019;DHT22;10667;51.056;3.732;2023-01-28T04:04:28;5.80;99.90
21019;DHT22;10667;51.056;3.732;2023-01-28T04:06:54;5.90;99.90
21019;DHT22;10667;51.056;3.732;2023-01-28T04:09:20;5.90;99.90
21019;DHT22;10667;51.056;3.732;2023-01-28T04:11:47;5.90;99.90
21019;DHT22;10667;51.056;3.732;2023-01-28T04:14:13;6.00;99.90
21019;DHT22;10667;51.056;3.732;2023-01-28T04:16:40;5.90;99.90
21019;DHT22;10667;51.056;3.732;2023-01-28T04:19:06;5.90;99.90
21019;DHT22;10667;51.056;3.732;2023-01-28T04:21:32;6.00;99.90
21019;DHT22;10667;51.056;3.732;2023-01-28T04:23:58;6.00;99.90
21019;DHT22;10667;51.056;3.732;2023-01-28T04:26:23;5.80;99.90
21019;DHT22;10667;51.056;3.732;2023-01-28T04:28:49;5.90;99.90
21019;DHT22;10667;51.056;3.732;2023-01-28T04:31:15;5.90;99.90
21019;DHT22;10667;51.056;3.732;2023-01-28T04:33:40;6.00;99.90
21019;DHT22;10667;51.056;3.732;2023-01-28T04:36:06;5.90;99.90
21019;DHT22;10667;51.056;3.732;2023-01-28T04:38:32;5.80;99.90
21019;DHT22;10667;51.056;3.732;2023-01-28T04:40:57;5.90;99.90
21019;DHT22;10667;51.056;3.732;2023-01-28T04:43:23;5.80;99.90
21019;DHT22;10667;51.056;3.732;2023-01-28T04:45:49;5.90;99.90
21019;DHT22;10667;51.056;3.732;2023-01-28T04:48:15;5.80;99.90
21019;DHT22;10667;51.056;3.732;2023-01-28T04:50:42;5.60;99.90
21019;DHT22;10667;51.056;3.732;2023-01-28T04:53:08;5.60;99.90
21019;DHT22;10667;51.056;3.732;2023-01-28T04:55:34;5.60;99.90
21019;DHT22;10667;51.056;3.732;2023-01-28T04:58:00;5.70;99.90
21019;DHT22;10667;51.056;3.732;2023-01-28T05:00:25;5.60;99.90
21019;DHT22;10667;51.056;3.732;2023-01-28T05:02:51;5.60;99.90
21019;DHT22;10667;51.056;3.732;2023-01-28T05:05:17;5.60;99.90
21019;DHT22;10667;51.056;3.732;2023-01-28T05:07:42;5.70;99.90
21019;DHT22;10667;51.056;3.732;2023-01-28T05:10:08;5.70;99.90
21019;DHT22;10667;51.056;3.732;2023-01-28T05:12:34;5.60;99.90
21019;DHT22;10667;51.056;3.732;2023-01-28T05:15:00;5.50;99.90
21019;DHT22;10667;51.056;3.732;2023-01-28T05:17:27;5.50;99.90
21019;DHT22;10667;51.056;3.732;2023-01-28T05:19:52;5.60;99.90
21019;DHT22;10667;51.056;3.732;2023-01-28T05:22:18;5.70;99.90
21019;DHT22;10667;51.056;3.732;2023-01-28T05:24:44;5.80;99.90
21019;DHT22;10667;51.056;3.732;2023-01-28T05:27:10;5.80;99.90
21019;DHT22;10667;51.056;3.732;2023-01-28T05:29:35;5.80;99.90
21019;DHT22;10667;51.056;3.732;2023-01-28T05:32:01;5.70;99.90
21019;DHT22;10667;51.056;3.732;2023-01-28T05:34:27;5.60;99.90
21019;DHT22;10667;51.056;3.732;2023-01-28T05:36:52;5.70;99.90
21019;DHT22;10667;51.056;3.732;2023-01-28T05:39:18;5.70;99.90
21019;DHT22;10667;51.056;3.732;2023-01-28T05:41:44;5.80;99.90
21019;DHT22;10667;51.056;3.732;2023-01-28T05:44:09;5.70;99.90
21019;DHT22;10667;51.056;3.732;2023-01-28T05:46:35;5.60;99.90
21019;DHT22;10667;51.056;3.732;2023-01-28T05:49:01;5.70;99.90
21019;DHT22;10667;51.056;3.732;2023-01-28T05:51:26;5.70;99.90
21019;DHT22;10667;51.056;3.732;2023-01-28T05:53:52;5.60;99.90
21019;DHT22;10667;51.056;3.732;2023-01-28T05:56:18;5.60;99.90
21019;DHT22;10667;51.056;3.732;2023-01-28T05:58:43;5.70;99.90
21019;DHT22;10667;51.056;3.732;2023-01-28T06:01:09;5.60;99.90
21019;DHT22;10667;51.056;3.732;2023-01-28T06:03:35;5.70;99.90
21019;DHT22;10667;51.056;3.732;2023-01-28T06:06:00;5.60;99.90
21019;DHT22;10667;51.056;3.732;2023-01-28T06:08:26;5.60;99.90
21019;DHT22;10667;51.056;3.732;2023-01-28T06:10:52;5.50;99.90
21019;DHT22;10667;51.056;3.732;2023-01-28T06:13:17;5.40;99.90
21019;DHT22;10667;51.056;3.732;2023-01-28T06:15:43;5.40;99.90
21019;DHT22;10667;51.056;3.732;2023-01-28T06:18:09;5.60;99.90
21019;DHT22;10667;51.056;3.732;2023-01-28T06:20:34;5.60;99.90
21019;DHT22;10667;51.056;3.732;2023-01-28T06:23:00;5.60;99.90
21019;DHT22;10667;51.056;3.732;2023-01-28T06:25:26;5.70;99.90
21019;DHT22;10667;51.056;3.732;2023-01-28T06:27:52;5.70;99.90
21019;DHT22;10667;51.056;3.732;2023-01-28T06:30:17;5.70;99.90
21019;DHT22;10667;51.056;3.732;2023-01-28T06:32:43;5.70;99.90
21019;DHT22;10667;51.056;3.732;2023-01-28T06:35:09;5.60;99.90
21019;DHT22;10667;51.056;3.732;2023-01-28T06:37:35;5.70;99.90
21019;DHT22;10667;51.056;3.732;2023-01-28T06:40:01;5.70;99.90
21019;DHT22;10667;51.056;3.732;2023-01-28T06:42:27;5.70;99.90
21019;DHT22;10667;51.056;3.732;2023-01-28T06:44:53;5.70;99.90
21019;DHT22;10667;51.056;3.732;2023-01-28T06:47:18;5.60;99.90
21019;DHT22;10667;51.056;3.732;2023-01-28T06:49:44;5.70;99.90
21019;DHT22;10667;51.056;3.732;2023-01-28T06:52:10;5.70;99.90
21019;DHT22;10667;51.056;3.732;2023-01-28T06:54:35;5.70;99.90
21019;DHT22;10667;51.056;3.732;2023-01-28T06:57:01;5.60;99.90
21019;DHT22;10667;51.056;3.732;2023-01-28T06:59:27;5.50;99.90
21019;DHT22;10667;51.056;3.732;2023-01-28T07:01:52;5.60;99.90
21019;DHT22;10667;51.056;3.732;2023-01-28T07:04:18;5.60;99.90
21019;DHT22;10667;51.056;3.732;2023-01-28T07:06:44;5.60;99.90
21019;DHT22;10667;51.056;3.732;2023-01-28T07:09:09;5.60;99.90
21019;DHT22;10667;51.056;3.732;2023-01-28T07:11:35;5.70;99.90
21019;DHT22;10667;51.056;3.732;2023-01-28T07:14:01;5.70;99.90
21019;DHT22;10667;51.056;3.732;2023-01-28T07:16:27;5.80;99.90
21019;DHT22;10667;51.056;3.732;2023-01-28T07:18:53;5.70;99.90
21019;DHT22;10667;51.056;3.732;2023-01-28T07:21:19;5.60;99.90
21019;DHT22;10667;51.056;3.732;2023-01-28T07:23:44;5.50;99.90
21019;DHT22;10667;51.056;3.732;2023-01-28T07:26:10;5.70;99.90
21019;DHT22;10667;51.056;3.732;2023-01-28T07:28:36;5.70;99.90
21019;DHT22;10667;51.056;3.732;2023-01-28T07:31:01;5.60;99.90
21019;DHT22;10667;51.056;3.732;2023-01-28T07:33:27;5.60;99.90
21019;DHT22;10667;51.056;3.732;2023-01-28T07:35:53;5.60;99.90
21019;DHT22;10667;51.056;3.732;2023-01-28T07:38:18;5.40;99.90
21019;DHT22;10667;51.056;3.732;2023-01-28T07:40:45;5.40;99.90
21019;DHT22;10667;51.056;3.732;2023-01-28T07:43:11;5.40;99.90
21019;DHT22;10667;51.056;3.732;2023-01-28T07:45:37;5.50;99.90
21019;DHT22;10667;51.056;3.732;2023-01-28T07:48:05;5.50;99.90
21019;DHT22;10667;51.056;3.732;2023-01-28T07:50:33;5.60;99.90
21019;DHT22;10667;51.056;3.732;2023-01-28T07:53:06;5.40;99.90
21019;DHT22;10667;51.056;3.732;2023-01-28T07:55:33;5.40;99.90
21019;DHT22;10667;51.056;3.732;2023-01-28T07:58:01;5.50;99.90
21019;DHT22;10667;51.056;3.732;2023-01-28T08:00:32;5.40;99.90
21019;DHT22;10667;51.056;3.732;2023-01-28T08:03:06;5.40;99.90
21019;DHT22;10667;51.056;3.732;2023-01-28T08:05:46;5.40;99.90
21019;DHT22;10667;51.056;3.732;2023-01-28T08:08:13;5.50;99.90
21019;DHT22;10667;51.056;3.732;2023-01-28T08:10:39;5.60;99.90
21019;DHT22;10667;51.056;3.732;2023-01-28T08:13:05;5.60;99.90
21019;DHT22;10667;51.056;3.732;2023-01-28T08:15:32;5.60;99.90
21019;DHT22;10667;51.056;3.732;2023-01-28T08:17:58;5.60;99.90
21019;DHT22;10667;51.056;3.732;2023-01-28T08:20:26;5.50;99.90
21019;DHT22;10667;51.056;3.732;2023-01-28T08:22:52;5.50;99.90
21019;DHT22;10667;51.056;3.732;2023-01-28T08:25:19;5.50;99.90
21019;DHT22;10667;51.056;3.732;2023-01-28T08:27:45;5.50;99.90
21019;DHT22;10667;51.056;3.732;2023-01-28T08:30:11;5.50;99.90
21019;DHT22;10667;51.056;3.732;2023-01-28T08:32:36;5.50;99.90
21019;DHT22;10667;51.056;3.732;2023-01-28T08:35:03;5.60;99.90
21019;DHT22;10667;51.056;3.732;2023-01-28T08:37:29;5.60;99.90
21019;DHT22;10667;51.056;3.732;2023-01-28T08:39:54;5.60;99.90
21019;DHT22;10667;51.056;3.732;2023-01-28T08:42:20;5.70;99.90
21019;DHT22;10667;51.056;3.732;2023-01-28T08:44:46;5.70;99.90
21019;DHT22;10667;51.056;3.732;2023-01-28T08:47:13;5.80;99.90
21019;DHT22;10667;51.056;3.732;2023-01-28T08:49:39;5.80;99.90
21019;DHT22;10667;51.056;3.732;2023-01-28T08:52:04;5.70;99.90
21019;DHT22;10667;51.056;3.732;2023-01-28T08:54:30;5.80;99.90
21019;DHT22;10667;51.056;3.732;2023-01-28T08:56:55;5.80;99.90
21019;DHT22;10667;51.056;3.732;2023-01-28T08:59:21;5.90;99.90
21019;DHT22;10667;51.056;3.732;2023-01-28T09:01:47;6.00;99.90
21019;DHT22;10667;51.056;3.732;2023-01-28T09:04:13;5.90;99.90
21019;DHT22;10667;51.056;3.732;2023-01-28T09:06:38;6.00;99.90
21019;DHT22;10667;51.056;3.732;2023-01-28T09:09:04;6.00;99.90
21019;DHT22;10667;51.056;3.732;2023-01-28T09:11:30;6.10;99.90
21019;DHT22;10667;51.056;3.732;2023-01-28T09:13:58;6.20;99.90
21019;DHT22;10667;51.056;3.732;2023-01-28T09:16:24;6.30;99.90
21019;DHT22;10667;51.056;3.732;2023-01-28T09:18:51;6.20;99.90
21019;DHT22;10667;51.056;3.732;2023-01-28T09:21:18;6.10;99.90
21019;DHT22;10667;51.056;3.732;2023-01-28T09:23:44;6.20;99.90
21019;DHT22;10667;51.056;3.732;2023-01-28T09:26:10;6.30;99.90
21019;DHT22;10667;51.056;3.732;2023-01-28T09:28:36;6.10;99.90
21019;DHT22;10667;51.056;3.732;2023-01-28T09:31:03;6.00;99.90
21019;DHT22;10667;51.056;3.732;2023-01-28T09:33:29;5.90;99.90
21019;DHT22;10667;51.056;3.732;2023-01-28T09:35:55;5.80;99.90
21019;DHT22;10667;51.056;3.732;2023-01-28T09:38:21;5.90;99.90
21019;DHT22;10667;51.056;3.732;2023-01-28T09:40:46;5.90;99.90
21019;DHT22;10667;51.056;3.732;2023-01-28T09:43:39;5.90;99.90
21019;DHT22;10667;51.056;3.732;2023-01-28T09:46:11;6.00;99.90
21019;DHT22;10667;51.056;3.732;2023-01-28T09:48:44;6.00;99.90
21019;DHT22;10667;51.056;3.732;2023-01-28T09:51:29;6.10;99.90
21019;DHT22;10667;51.056;3.732;2023-01-28T09:54:01;6.10;99.90
21019;DHT22;10667;51.056;3.732;2023-01-28T09:56:38;6.10;99.90
21019;DHT22;10667;51.056;3.732;2023-01-28T09:59:18;6.10;99.90
21019;DHT22;10667;51.056;3.732;2023-01-28T10:02:14;5.80;99.90
21019;DHT22;10667;51.056;3.732;2023-01-28T10:10:31;5.80;99.90
21019;DHT22;10667;51.056;3.732;2023-01-28T10:13:15;5.80;99.90
21019;DHT22;10667;51.056;3.732;2023-01-28T10:18:54;5.80;99.90
21019;DHT22;10667;51.056;3.732;2023-01-28T10:21:28;5.80;99.90
21019;DHT22;10667;51.056;3.732;2023-01-28T10:26:37;5.80;99.90
21019;DHT22;10667;51.056;3.732;2023-01-28T10:29:13;5.90;99.90
21019;DHT22;10667;51.056;3.732;2023-01-28T10:32:00;6.10;99.90
21019;DHT22;10667;51.056;3.732;2023-01-28T10:34:29;6.10;99.90
21019;DHT22;10667;51.056;3.732;2023-01-28T10:36:56;6.20;99.90
21019;DHT22;10667;51.056;3.732;2023-01-28T10:39:24;6.40;99.90
21019;DHT22;10667;51.056;3.732;2023-01-28T10:41:50;6.50;99.90
21019;DHT22;10667;51.056;3.732;2023-01-28T10:44:31;6.50;99.90
21019;DHT22;10667;51.056;3.732;2023-01-28T10:47:03;6.40;99.90
21019;DHT22;10667;51.056;3.732;2023-01-28T10:49:37;6.40;99.90
21019;DHT22;10667;51.056;3.732;2023-01-28T10:52:14;6.50;99.90
21019;DHT22;10667;51.056;3.732;2023-01-28T10:54:40;6.60;99.90
21019;DHT22;10667;51.056;3.732;2023-01-28T10:57:16;6.50;99.90
21019;DHT22;10667;51.056;3.732;2023-01-28T10:59:43;6.60;99.90
21019;DHT22;10667;51.056;3.732;2023-01-28T11:02:31;6.70;99.90
21019;DHT22;10667;51.056;3.732;2023-01-28T11:05:02;6.60;99.90
21019;DHT22;10667;51.056;3.732;2023-01-28T11:07:28;6.50;99.90
21019;DHT22;10667;51.056;3.732;2023-01-28T11:09:54;6.50;99.90
21019;DHT22;10667;51.056;3.732;2023-01-28T11:12:40;6.50;99.90
21019;DHT22;10667;51.056;3.732;2023-01-28T11:15:16;6.60;99.90
21019;DHT22;10667;51.056;3.732;2023-01-28T11:17:47;6.60;99.90
21019;DHT22;10667;51.056;3.732;2023-01-28T11:20:21;6.60;99.90
21019;DHT22;10667;51.056;3.732;2023-01-28T11:22:49;6.60;99.90
21019;DHT22;10667;51.056;3.732;2023-01-28T11:25:23;6.60;99.90
21019;DHT22;10667;51.056;3.732;2023-01-28T11:27:51;6.50;99.90
21019;DHT22;10667;51.056;3.732;2023-01-28T11:33:03;6.70;99.90
21019;DHT22;10667;51.056;3.732;2023-01-28T11:35:30;6.80;99.90
21019;DHT22;10667;51.056;3.732;2023-01-28T11:37:59;6.70;99.90
21019;DHT22;10667;51.056;3.732;2023-01-28T11:40:26;6.80;99.90
21019;DHT22;10667;51.056;3.732;2023-01-28T11:42:53;6.70;99.90
21019;DHT22;10667;51.056;3.732;2023-01-28T11:45:31;6.80;99.90
21019;DHT22;10667;51.056;3.732;2023-01-28T12:00:48;6.70;99.90
21019;DHT22;10667;51.056;3.732;2023-01-28T12:03:29;6.70;99.90
21019;DHT22;10667;51.056;3.732;2023-01-28T12:06:17;6.60;99.90
21019;DHT22;10667;51.056;3.732;2023-01-28T12:20:02;6.60;99.90
21019;DHT22;10667;51.056;3.732;2023-01-28T12:25:14;6.60;99.90
21019;DHT22;10667;51.056;3.732;2023-01-28T12:39:15;6.70;99.90
21019;DHT22;10667;51.056;3.732;2023-01-28T12:41:48;6.70;99.90
21019;DHT22;10667;51.056;3.732;2023-01-28T12:44:24;6.70;99.90
21019;DHT22;10667;51.056;3.732;2023-01-28T12:46:56;6.80;99.90
21019;DHT22;10667;51.056;3.732;2023-01-28T12:54:41;6.90;99.90
21019;DHT22;10667;51.056;3.732;2023-01-28T12:57:18;7.10;99.90
21019;DHT22;10667;51.056;3.732;2023-01-28T12:59:50;7.00;99.90
21019;DHT22;10667;51.056;3.732;2023-01-28T13:02:28;6.90;99.90
21019;DHT22;10667;51.056;3.732;2023-01-28T13:05:11;6.90;99.90
21019;DHT22;10667;51.056;3.732;2023-01-28T13:07:44;6.80;99.90
21019;DHT22;10667;51.056;3.732;2023-01-28T13:10:33;6.70;99.90
21019;DHT22;10667;51.056;3.732;2023-01-28T13:13:02;6.60;99.90
21019;DHT22;10667;51.056;3.732;2023-01-28T13:15:28;6.70;99.90
21019;DHT22;10667;51.056;3.732;2023-01-28T13:18:04;6.90;99.90
21019;DHT22;10667;51.056;3.732;2023-01-28T13:20:49;7.20;99.90
21019;DHT22;10667;51.056;3.732;2023-01-28T13:23:23;7.20;99.90
21019;DHT22;10667;51.056;3.732;2023-01-28T13:25:54;7.20;99.90
21019;DHT22;10667;51.056;3.732;2023-01-28T13:28:29;7.10;99.90
21019;DHT22;10667;51.056;3.732;2023-01-28T13:31:22;7.10;99.90
21019;DHT22;10667;51.056;3.732;2023-01-28T13:34:01;7.10;99.90
21019;DHT22;10667;51.056;3.732;2023-01-28T13:36:33;7.20;99.90
21019;DHT22;10667;51.056;3.732;2023-01-28T13:39:13;7.00;99.90
21019;DHT22;10667;51.056;3.732;2023-01-28T13:41:45;7.00;99.90
21019;DHT22;10667;51.056;3.732;2023-01-28T13:44:32;7.10;99.90
21019;DHT22;10667;51.056;3.732;2023-01-28T13:49:42;7.20;99.90
21019;DHT22;10667;51.056;3.732;2023-01-28T13:52:31;7.30;99.90
21019;DHT22;10667;51.056;3.732;2023-01-28T14:17:41;7.50;99.90
21019;DHT22;10667;51.056;3.732;2023-01-28T14:23:05;6.90;99.90
21019;DHT22;10667;51.056;3.732;2023-01-28T14:31:25;7.20;99.90
21019;DHT22;10667;51.056;3.732;2023-01-28T14:33:51;7.20;99.90
21019;DHT22;10667;51.056;3.732;2023-01-28T14:36:17;7.10;99.90
21019;DHT22;10667;51.056;3.732;2023-01-28T14:38:44;7.20;99.90
21019;DHT22;10667;51.056;3.732;2023-01-28T14:41:22;7.00;99.90
21019;DHT22;10667;51.056;3.732;2023-01-28T14:43:49;7.10;99.90
21019;DHT22;10667;51.056;3.732;2023-01-28T14:49:16;7.00;99.90
21019;DHT22;10667;51.056;3.732;2023-01-28T14:59:55;6.90;99.90
21019;DHT22;10667;51.056;3.732;2023-01-28T15:02:27;6.90;99.90
21019;DHT22;10667;51.056;3.732;2023-01-28T15:04:53;6.90;99.90
21019;DHT22;10667;51.056;3.732;2023-01-28T15:07:25;7.00;99.90
21019;DHT22;10667;51.056;3.732;2023-01-28T15:10:06;7.20;99.90
21019;DHT22;10667;51.056;3.732;2023-01-28T15:12:35;7.10;99.90
21019;DHT22;10667;51.056;3.732;2023-01-28T15:15:10;7.10;99.90
21019;DHT22;10667;51.056;3.732;2023-01-28T15:17:37;7.00;99.90
21019;DHT22;10667;51.056;3.732;2023-01-28T15:20:06;7.00;99.90
21019;DHT22;10667;51.056;3.732;2023-01-28T15:22:32;7.00;99.90
21019;DHT22;10667;51.056;3.732;2023-01-28T15:24:58;7.00;99.90
21019;DHT22;10667;51.056;3.732;2023-01-28T15:27:28;7.00;99.90
21019;DHT22;10667;51.056;3.732;2023-01-28T15:29:57;7.10;99.90
21019;DHT22;10667;51.056;3.732;2023-01-28T15:32:28;7.20;99.90
21019;DHT22;10667;51.056;3.732;2023-01-28T15:34:55;7.30;99.90
21019;DHT22;10667;51.056;3.732;2023-01-28T15:37:23;7.10;99.90
21019;DHT22;10667;51.056;3.732;2023-01-28T15:40:03;7.10;99.90
21019;DHT22;10667;51.056;3.732;2023-01-28T15:42:33;7.00;99.90
21019;DHT22;10667;51.056;3.732;2023-01-28T15:44:59;7.00;99.90
21019;DHT22;10667;51.056;3.732;2023-01-28T15:47:28;7.00;99.90
21019;DHT22;10667;51.056;3.732;2023-01-28T15:50:00;7.00;99.90
21019;DHT22;10667;51.056;3.732;2023-01-28T15:52:33;7.10;99.90
21019;DHT22;10667;51.056;3.732;2023-01-28T15:54:59;7.10;99.90
21019;DHT22;10667;51.056;3.732;2023-01-28T15:57:29;7.00;99.90
21019;DHT22;10667;51.056;3.732;2023-01-28T16:00:22;7.00;99.90
21019;DHT22;10667;51.056;3.732;2023-01-28T16:02:52;7.00;99.90
21019;DHT22;10667;51.056;3.732;2023-01-28T16:05:34;7.10;99.90
21019;DHT22;10667;51.056;3.732;2023-01-28T16:08:16;7.00;99.90
21019;DHT22;10667;51.056;3.732;2023-01-28T16:10:54;7.00;99.90
21019;DHT22;10667;51.056;3.732;2023-01-28T16:13:22;7.00;99.90
21019;DHT22;10667;51.056;3.732;2023-01-28T16:15:50;7.10;99.90
21019;DHT22;10667;51.056;3.732;2023-01-28T16:20:48;7.00;99.90
21019;DHT22;10667;51.056;3.732;2023-01-28T16:23:27;6.90;99.90
21019;DHT22;10667;51.056;3.732;2023-01-28T16:26:01;6.90;99.90
21019;DHT22;10667;51.056;3.732;2023-01-28T16:28:27;6.90;99.90
21019;DHT22;10667;51.056;3.732;2023-01-28T16:30:57;6.80;99.90
21019;DHT22;10667;51.056;3.732;2023-01-28T16:33:23;6.80;99.90
21019;DHT22;10667;51.056;3.732;2023-01-28T16:35:49;6.80;99.90
21019;DHT22;10667;51.056;3.732;2023-01-28T16:38:16;6.80;99.90
21019;DHT22;10667;51.056;3.732;2023-01-28T16:40:43;6.80;99.90
21019;DHT22;10667;51.056;3.732;2023-01-28T16:43:10;6.80;99.90
21019;DHT22;10667;51.056;3.732;2023-01-28T16:45:36;6.70;99.90
21019;DHT22;10667;51.056;3.732;2023-01-28T16:48:02;6.80;99.90
21019;DHT22;10667;51.056;3.732;2023-01-28T16:50:28;6.80;99.90
21019;DHT22;10667;51.056;3.732;2023-01-28T16:52:56;6.60;99.90
21019;DHT22;10667;51.056;3.732;2023-01-28T16:55:22;6.50;99.90
21019;DHT22;10667;51.056;3.732;2023-01-28T16:57:50;6.60;99.90
21019;DHT22;10667;51.056;3.732;2023-01-28T17:00:25;6.60;99.90
21019;DHT22;10667;51.056;3.732;2023-01-28T17:02:52;6.50;99.90
21019;DHT22;10667;51.056;3.732;2023-01-28T17:05:19;6.50;99.90
21019;DHT22;10667;51.056;3.732;2023-01-28T17:07:46;6.40;99.90
21019;DHT22;10667;51.056;3.732;2023-01-28T17:10:15;6.30;99.90
21019;DHT22;10667;51.056;3.732;2023-01-28T17:12:42;6.30;99.90
21019;DHT22;10667;51.056;3.732;2023-01-28T17:15:08;6.30;99.90
21019;DHT22;10667;51.056;3.732;2023-01-28T17:17:34;6.20;99.90
21019;DHT22;10667;51.056;3.732;2023-01-28T17:19:59;6.30;99.90
21019;DHT22;10667;51.056;3.732;2023-01-28T17:22:25;6.30;99.90
21019;DHT22;10667;51.056;3.732;2023-01-28T17:24:51;6.20;99.90
21019;DHT22;10667;51.056;3.732;2023-01-28T17:27:17;6.20;99.90
21019;DHT22;10667;51.056;3.732;2023-01-28T17:29:42;6.20;99.90
21019;DHT22;10667;51.056;3.732;2023-01-28T17:32:08;6.20;99.90
21019;DHT22;10667;51.056;3.732;2023-01-28T17:34:34;6.30;99.90
21019;DHT22;10667;51.056;3.732;2023-01-28T17:36:59;6.20;99.90
21019;DHT22;10667;51.056;3.732;2023-01-28T17:39:25;6.30;99.90
21019;DHT22;10667;51.056;3.732;2023-01-28T17:41:51;6.20;99.90
21019;DHT22;10667;51.056;3.732;2023-01-28T17:44:17;6.20;99.90
21019;DHT22;10667;51.056;3.732;2023-01-28T17:46:44;6.10;99.90
21019;DHT22;10667;51.056;3.732;2023-01-28T17:49:10;6.10;99.90
21019;DHT22;10667;51.056;3.732;2023-01-28T17:51:36;6.00;99.90
21019;DHT22;10667;51.056;3.732;2023-01-28T17:54:02;6.00;99.90
21019;DHT22;10667;51.056;3.732;2023-01-28T17:56:29;6.00;99.90
21019;DHT22;10667;51.056;3.732;2023-01-28T17:58:57;6.10;99.90
21019;DHT22;10667;51.056;3.732;2023-01-28T18:01:24;6.00;99.90
21019;DHT22;10667;51.056;3.732;2023-01-28T18:03:51;6.00;99.90
21019;DHT22;10667;51.056;3.732;2023-01-28T18:06:16;6.00;99.90
21019;DHT22;10667;51.056;3.732;2023-01-28T18:08:42;6.00;99.90
21019;DHT22;10667;51.056;3.732;2023-01-28T18:11:10;6.00;99.90
21019;DHT22;10667;51.056;3.732;2023-01-28T18:13:37;5.90;99.90